Alameda, California
Current Conditions -  °F | °C
As of 11:53 PM on Sunday 21 Dec 2014 (Local Time) from KOAK Reporting Station
Light Fog Light Fog  
Wind Chill: 55°   Ceiling: Unl
Heat Index: 55°   Visibility: 10mi
Dew Point: 54°   Wind: 0mph
Humidity: 96%   Direction: NA
Pressure: 30.28"   Gusts: NA
Location:  37.77°N, 122.24°W
Report Text: KOAK 220753Z 00000KT 10SM MIFG FEW010 13/12 A3028 RMK AO2 SLP255 T01280122 401780128
Loading
Personal Weather Stations






























Interactive Weather Map New forecast layout! Learn more

10-Day Weather Forecast

Advertisements
Track Severe Weather on mobile